Skip to main content.
Our real time weather data display below is updated continuously via our 24/7 live data feed.
 TIME   TEMPERATURE   WINDSPEED   DIRECTION   HUMIDITY   BAROMETER   RAINFALL 
6:25 26.0°C (78.8°F) 9.3 kmh (5.8 mph) ENE 78% 1016.9hPa (30.03 inHg) 0.0mm (0.00 in.)
5:25 26.0°C (78.8 °F) 11.1 kmh (6.9 mph) NE 83% 1016.9hPa (30.03 inHg) 0.0mm (0.00 in.)
4:25 25.0°C (77.0 °F) 13.0 kmh (8.1 mph) E 88% 1015.9hPa (30.00 inHg) 0.0mm (0.00 in.)
3:25 25.0°C (77.0 °F) 14.8 kmh (9.2 mph) E 88% 1016.9hPa (30.03 inHg) 0.0mm (0.00 in.)
2:25 26.0°C (78.8 °F) 18.5 kmh (11.5 mph) NNW 78% 1017.9hPa (30.06 inHg) 0.0mm (0.00 in.)
1:25 24.0°C (75.2 °F) 11.1 kmh (6.9 mph) N 83% 1016.9hPa (30.03 inHg) 0.0mm (0.00 in.)
0:25 25.0°C (77.0 °F) 13.0 kmh (8.1 mph) NNW 78% 1016.9hPa (30.03 inHg) 0.0mm (0.00 in.)
23:24 25.0°C (77.0 °F) 16.7 kmh (10.4 mph) N 78% 1016.9hPa (30.03 inHg) 0.0mm (0.00 in.)
22:24 24.0°C (75.2 °F) 11.1 kmh (6.9 mph) NW 83% 1016.9hPa (30.03 inHg) 0.0mm (0.00 in.)
21:24 25.0°C (77.0 °F) 13.0 kmh (8.1 mph) NW 83% 1016.9hPa (30.03 inHg) 0.0mm (0.00 in.)
20:24 26.0°C (78.8 °F) 11.1 kmh (6.9 mph) WNW 73% 1015.9hPa (30.00 inHg) 0.0mm (0.00 in.)
19:24 27.0°C (80.6 °F) 13.0 kmh (8.1 mph) NW 65% 1015.9hPa (30.00 inHg) 0.0mm (0.00 in.)
18:24 29.0°C (84.2 °F) 11.1 kmh (6.9 mph) W 58% 1015.9hPa (30.00 inHg) 0.0mm (0.00 in.)
17:24 30.0°C (86.0 °F) 9.3 kmh (5.8 mph) SW 62% 1014.9hPa (29.97 inHg) 0.0mm (0.00 in.)
16:24 31.0°C (87.8 °F) 11.1 kmh (6.9 mph) NE 48% 1014.9hPa (29.97 inHg) 0.0mm (0.00 in.)
15:24 31.0°C (87.8 °F) 13.0 kmh (8.1 mph) NE 48% 1014.9hPa (29.97 inHg) 0.0mm (0.00 in.)
14:24 31.0°C (87.8 °F) 13.0 kmh (8.1 mph) NNE 48% 1015.9hPa (30.00 inHg) 0.0mm (0.00 in.)
13:24 31.0°C (87.8 °F) 9.3 kmh (5.8 mph) N 52% 1015.9hPa (30.00 inHg) 0.0mm (0.00 in.)
12:24 31.0°C (87.8 °F) 11.1 kmh (6.9 mph) NNE 52% 1015.9hPa (30.00 inHg) 0.0mm (0.00 in.)
11:24 30.0°C (86.0 °F) 13.0 kmh (8.1 mph) N 51% 1016.9hPa (30.03 inHg) 0.0mm (0.00 in.)
10:24 29.0°C (84.2 °F) 14.8 kmh (9.2 mph) N 58% 1015.9hPa (30.00 inHg) 0.0mm (0.00 in.)
9:24 27.0°C (80.6 °F) 14.8 kmh (9.2 mph) NNW 69% 1015.9hPa (30.00 inHg) 0.0mm (0.00 in.)
8:24 25.0°C (77.0 °F) 9.3 kmh (5.8 mph) NW 88% 1015.9hPa (30.00 inHg) 0.0mm (0.00 in.)
7:24 24.0°C (75.2 °F) 9.3 kmh (5.8 mph) W 88% 1015.9hPa (30.00 inHg) 0.0mm (0.00 in.)